Time;durP1;ratioP1;P1;durP2;ratioP2;P2;SDS_P1;SDS_P2;PMS_P1;PMS_P2;Temp;Humidity;BMP_temperature;BMP_pressure;BME280_temperature;BME280_humidity;BME280_pressure;Samples;Min_cycle;Max_cycle;Signal;HPM_P1;HPM_P2
2021/06/28 00:01:13;;;;;;;11.47;3.63;;;24.10;99.90;;;;;;5064562;28;20273;-79
2021/06/28 00:03:41;;;;;;;14.65;3.80;;;24.10;99.90;;;;;;5062559;28;20199;-77
2021/06/28 00:06:08;;;;;;;8.80;3.53;;;24.00;99.90;;;;;;5054223;28;20186;-76
2021/06/28 00:08:37;;;;;;;8.27;3.10;;;24.00;99.90;;;;;;5061268;28;20210;-77
2021/06/28 00:11:08;;;;;;;8.60;3.50;;;24.00;99.90;;;;;;5049415;28;20343;-79
2021/06/28 00:13:42;;;;;;;11.97;4.40;;;24.00;99.90;;;;;;5063991;28;20278;-76
2021/06/28 00:16:15;;;;;;;10.45;3.75;;;24.00;99.90;;;;;;5072371;28;20896;-79
2021/06/28 00:18:43;;;;;;;8.77;3.57;;;23.90;99.90;;;;;;5063686;28;20187;-78
2021/06/28 00:21:10;;;;;;;7.43;3.90;;;23.90;99.90;;;;;;5050590;28;20239;-79
2021/06/28 00:23:38;;;;;;;10.98;3.70;;;23.90;99.90;;;;;;5063942;28;20191;-81
2021/06/28 00:26:04;;;;;;;8.82;3.50;;;23.90;99.90;;;;;;5071101;28;20197;-80
2021/06/28 00:28:32;;;;;;;9.45;3.42;;;23.90;99.90;;;;;;5063006;28;20191;-78
2021/06/28 00:30:58;;;;;;;8.00;3.80;;;23.90;99.90;;;;;;5062090;28;20222;-80
2021/06/28 00:33:25;;;;;;;11.85;4.07;;;23.80;99.90;;;;;;5065939;28;20515;-78
2021/06/28 00:35:52;;;;;;;13.23;3.70;;;23.80;99.90;;;;;;5062227;28;20187;-80
2021/06/28 00:38:18;;;;;;;12.30;4.20;;;23.80;99.90;;;;;;5063255;28;20222;-77
2021/06/28 00:40:46;;;;;;;12.85;4.38;;;23.80;99.90;;;;;;5066025;28;20182;-79
2021/06/28 00:43:18;;;;;;;10.25;3.90;;;23.80;99.90;;;;;;5072357;28;20185;-79
2021/06/28 00:45:45;;;;;;;11.87;3.83;;;23.80;99.90;;;;;;5062067;28;20183;-76
2021/06/28 00:48:15;;;;;;;13.67;3.73;;;23.80;99.90;;;;;;5072141;28;20198;-79
2021/06/28 00:50:52;;;;;;;10.73;4.10;;;23.80;99.90;;;;;;5067718;28;20245;-77
2021/06/28 00:53:25;;;;;;;10.60;3.70;;;23.80;99.90;;;;;;5090988;28;20338;-77
2021/06/28 00:56:08;;;;;;;7.93;3.40;;;23.90;99.90;;;;;;5089203;28;20211;-78
2021/06/28 00:58:40;;;;;;;10.60;3.53;;;23.90;99.90;;;;;;5070892;28;20268;-79
2021/06/28 01:01:09;;;;;;;11.27;4.10;;;23.90;99.90;;;;;;5075990;28;20182;-78
2021/06/28 01:03:36;;;;;;;10.13;3.90;;;23.90;99.90;;;;;;5066079;28;20277;-76
2021/06/28 01:06:04;;;;;;;13.10;4.33;;;23.90;99.90;;;;;;5066038;28;20540;-76
2021/06/28 01:08:47;;;;;;;10.07;3.88;;;23.90;99.90;;;;;;5069755;28;20277;-76
2021/06/28 01:11:13;;;;;;;12.20;3.83;;;23.90;99.90;;;;;;5054012;28;20234;-75
2021/06/28 01:13:41;;;;;;;12.80;3.80;;;23.90;99.90;;;;;;5073258;28;20175;-77
2021/06/28 01:16:09;;;;;;;17.90;3.80;;;23.90;99.90;;;;;;5084068;28;20184;-79
2021/06/28 01:18:36;;;;;;;17.73;4.10;;;23.90;99.90;;;;;;5049579;28;20175;-80
2021/06/28 01:21:05;;;;;;;7.30;3.10;;;23.90;99.90;;;;;;5095911;28;20490;-78
2021/06/28 01:23:33;;;;;;;12.53;3.77;;;23.80;99.90;;;;;;5068310;28;20260;-80
2021/06/28 01:26:07;;;;;;;9.80;3.28;;;23.80;99.90;;;;;;5068992;28;20214;-78
2021/06/28 01:28:34;;;;;;;11.87;3.70;;;23.80;99.90;;;;;;5074459;28;20579;-78
2021/06/28 01:31:04;;;;;;;13.13;3.40;;;23.90;99.90;;;;;;5048017;28;20198;-78
2021/06/28 01:33:30;;;;;;;11.17;3.63;;;23.80;99.90;;;;;;5067105;28;20190;-76
2021/06/28 01:35:57;;;;;;;9.55;3.78;;;23.80;99.90;;;;;;5068034;28;20270;-78
2021/06/28 01:38:24;;;;;;;11.35;3.60;;;23.80;99.90;;;;;;5044775;28;20187;-77
2021/06/28 01:40:51;;;;;;;13.47;3.70;;;23.80;99.90;;;;;;5072557;28;20210;-80
2021/06/28 01:43:18;;;;;;;11.70;3.63;;;23.80;99.90;;;;;;5078685;28;20171;-77
2021/06/28 01:45:45;;;;;;;8.32;3.58;;;23.70;99.90;;;;;;5073920;28;20233;-78
2021/06/28 01:48:12;;;;;;;11.75;3.50;;;23.70;99.90;;;;;;5094867;28;20205;-78
2021/06/28 01:50:40;;;;;;;12.53;3.40;;;23.70;99.90;;;;;;5067930;28;20254;-79
2021/06/28 01:53:08;;;;;;;9.40;3.70;;;23.70;99.90;;;;;;5066008;28;20566;-78
2021/06/28 01:55:36;;;;;;;13.87;3.47;;;23.80;99.90;;;;;;5080185;28;20174;-79
2021/06/28 01:58:08;;;;;;;10.20;3.33;;;23.70;99.90;;;;;;5071479;28;20179;-75
2021/06/28 02:00:40;;;;;;;19.07;3.87;;;23.70;99.90;;;;;;5072446;28;20236;-77
2021/06/28 02:03:14;;;;;;;14.15;3.83;;;23.80;99.90;;;;;;5063388;28;20295;-77
2021/06/28 02:05:57;;;;;;;19.13;3.93;;;23.80;99.90;;;;;;5067876;28;20187;-78
2021/06/28 02:08:28;;;;;;;12.38;4.40;;;23.80;99.90;;;;;;5086746;28;20221;-76
2021/06/28 02:11:02;;;;;;;10.60;3.88;;;23.80;99.90;;;;;;5056402;28;20214;-79
2021/06/28 02:13:32;;;;;;;10.57;3.22;;;23.80;99.90;;;;;;5083760;28;20265;-77
2021/06/28 02:15:58;;;;;;;17.63;4.60;;;23.70;99.90;;;;;;5078106;28;20179;-77
2021/06/28 02:18:27;;;;;;;19.20;3.93;;;23.70;99.90;;;;;;5071553;28;20643;-76
2021/06/28 02:20:59;;;;;;;12.87;3.87;;;23.70;99.90;;;;;;5077445;28;20528;-78
2021/06/28 02:23:35;;;;;;;10.82;3.38;;;23.60;99.90;;;;;;5068632;28;20179;-77
2021/06/28 02:26:10;;;;;;;13.65;3.75;;;23.60;99.90;;;;;;5070573;28;20197;-80
2021/06/28 02:28:40;;;;;;;27.57;4.03;;;23.60;99.90;;;;;;5071483;28;20174;-77
2021/06/28 02:31:17;;;;;;;11.77;3.70;;;23.60;99.90;;;;;;5081400;28;20231;-76
2021/06/28 02:33:44;;;;;;;11.67;3.40;;;23.50;99.90;;;;;;5085932;28;20265;-77
2021/06/28 02:36:10;;;;;;;13.93;3.97;;;23.50;99.90;;;;;;5064493;28;20206;-79
2021/06/28 02:38:39;;;;;;;13.67;3.90;;;23.50;99.90;;;;;;5084177;28;20190;-77
2021/06/28 02:41:07;;;;;;;9.97;3.20;;;23.40;99.90;;;;;;5071625;28;20183;-77
2021/06/28 02:43:36;;;;;;;6.27;2.73;;;23.40;99.90;;;;;;5061793;28;20970;-77
2021/06/28 02:46:03;;;;;;;6.43;3.10;;;23.50;99.90;;;;;;5069199;28;20285;-77
2021/06/28 02:48:32;;;;;;;8.88;2.83;;;23.50;99.90;;;;;;5051287;28;20179;-78
2021/06/28 02:50:58;;;;;;;5.87;2.70;;;23.50;99.90;;;;;;5082128;28;20778;-78
2021/06/28 02:53:24;;;;;;;8.75;2.80;;;23.50;99.90;;;;;;5081767;28;20649;-78
2021/06/28 02:55:52;;;;;;;7.13;3.00;;;23.50;99.90;;;;;;5065474;28;20209;-79
2021/06/28 02:58:20;;;;;;;7.50;2.70;;;23.60;99.90;;;;;;5053295;28;20190;-77
2021/06/28 03:00:47;;;;;;;10.87;3.00;;;23.50;99.90;;;;;;5064606;28;20225;-79
2021/06/28 03:03:14;;;;;;;8.83;2.60;;;23.50;99.90;;;;;;5069919;28;20191;-78
2021/06/28 03:05:41;;;;;;;8.80;2.40;;;23.50;99.90;;;;;;5050496;28;20302;-77
2021/06/28 03:08:08;;;;;;;5.83;2.50;;;23.50;99.90;;;;;;5083113;28;20266;-77
2021/06/28 03:10:36;;;;;;;10.37;2.70;;;23.60;99.90;;;;;;5064745;28;20314;-77
2021/06/28 03:13:07;;;;;;;6.90;2.77;;;23.60;99.90;;;;;;5094055;28;20220;-79
2021/06/28 03:15:33;;;;;;;6.23;2.50;;;23.60;99.90;;;;;;5049307;28;20178;-75
2021/06/28 03:18:00;;;;;;;7.40;2.83;;;23.60;99.90;;;;;;5076745;28;20182;-78
2021/06/28 03:20:27;;;;;;;9.67;2.60;;;23.60;99.90;;;;;;5065808;28;20747;-78
2021/06/28 03:22:53;;;;;;;8.13;2.90;;;23.60;99.90;;;;;;5057700;28;20191;-76
2021/06/28 03:25:19;;;;;;;11.70;3.00;;;23.60;99.90;;;;;;5069122;28;20206;-76
2021/06/28 03:27:46;;;;;;;7.17;3.13;;;23.60;99.90;;;;;;5058408;28;20778;-78
2021/06/28 03:30:15;;;;;;;9.13;3.07;;;23.60;99.90;;;;;;5064491;28;20797;-78
2021/06/28 03:32:44;;;;;;;13.17;3.47;;;23.70;99.90;;;;;;5065378;28;21179;-76
2021/06/28 03:35:12;;;;;;;8.17;2.80;;;23.70;99.90;;;;;;5083595;28;20411;-76
2021/06/28 03:37:40;;;;;;;9.17;3.27;;;23.70;99.90;;;;;;5049698;28;20179;-78
2021/06/28 03:40:10;;;;;;;4.77;2.67;;;23.80;99.90;;;;;;5052289;28;20210;-79
2021/06/28 03:42:37;;;;;;;10.13;3.10;;;23.80;99.90;;;;;;5073712;28;20216;-78
2021/06/28 03:45:11;;;;;;;13.02;3.13;;;23.80;99.90;;;;;;5066969;28;20187;-77
2021/06/28 03:47:38;;;;;;;13.38;3.05;;;23.80;99.90;;;;;;5064159;28;20663;-78
2021/06/28 03:50:08;;;;;;;10.48;3.13;;;23.80;99.90;;;;;;5079089;28;20203;-78
2021/06/28 03:52:36;;;;;;;6.43;3.10;;;23.80;99.90;;;;;;5068733;28;20675;-78
2021/06/28 03:55:05;;;;;;;10.45;3.00;;;23.80;99.90;;;;;;5069011;28;20182;-79
2021/06/28 03:57:33;;;;;;;10.20;3.30;;;23.80;99.90;;;;;;5068834;28;20274;-74
2021/06/28 04:00:00;;;;;;;12.17;3.37;;;23.80;99.90;;;;;;5069380;28;20197;-76
2021/06/28 04:02:27;;;;;;;9.00;3.30;;;23.90;99.90;;;;;;5082315;28;21046;-78
2021/06/28 04:04:54;;;;;;;10.40;3.30;;;23.90;99.90;;;;;;5086974;28;20183;-77
2021/06/28 04:07:20;;;;;;;11.50;3.92;;;23.90;99.90;;;;;;5070924;28;20214;-79
2021/06/28 04:09:47;;;;;;;12.73;3.63;;;23.90;99.90;;;;;;5062505;28;20214;-82
2021/06/28 04:12:13;;;;;;;10.25;3.20;;;24.00;99.90;;;;;;5068296;28;20206;-80
2021/06/28 04:14:41;;;;;;;9.32;2.90;;;24.00;99.90;;;;;;5068692;28;20184;-79
2021/06/28 04:17:09;;;;;;;8.30;3.15;;;24.00;99.90;;;;;;5064646;28;20189;-80
2021/06/28 04:19:35;;;;;;;6.20;3.03;;;24.00;99.90;;;;;;5068520;28;20551;-79
2021/06/28 04:22:01;;;;;;;10.77;3.50;;;24.00;99.90;;;;;;5063837;28;20178;-78
2021/06/28 04:24:28;;;;;;;10.27;3.28;;;24.00;99.90;;;;;;5066200;28;20940;-79
2021/06/28 04:26:54;;;;;;;11.93;3.33;;;24.10;99.90;;;;;;5064903;28;20190;-79
2021/06/28 04:29:20;;;;;;;10.27;3.30;;;24.10;99.90;;;;;;5047036;28;20215;-80
2021/06/28 04:31:50;;;;;;;7.10;3.35;;;24.10;99.90;;;;;;5069407;28;20730;-80
2021/06/28 04:34:16;;;;;;;14.77;3.45;;;24.20;99.90;;;;;;5065025;28;20226;-78
2021/06/28 04:36:43;;;;;;;7.00;3.25;;;24.20;99.90;;;;;;5062540;28;20187;-79
2021/06/28 04:39:10;;;;;;;8.73;3.42;;;24.20;99.90;;;;;;5067373;28;20175;-78
2021/06/28 04:41:36;;;;;;;10.70;3.75;;;24.30;99.90;;;;;;5087415;28;20190;-75
2021/06/28 04:44:03;;;;;;;9.07;3.53;;;24.30;99.90;;;;;;5066889;28;20209;-79
2021/06/28 04:46:29;;;;;;;12.05;3.72;;;24.30;99.90;;;;;;5064387;28;20175;-79
2021/06/28 04:48:55;;;;;;;8.13;3.50;;;24.30;99.90;;;;;;5067110;28;20282;-78
2021/06/28 04:51:25;;;;;;;9.70;3.22;;;24.40;99.90;;;;;;5080697;28;20301;-80
2021/06/28 04:53:52;;;;;;;10.23;3.33;;;24.40;99.90;;;;;;5087109;28;20273;-80
2021/06/28 04:56:21;;;;;;;11.77;3.60;;;24.40;99.90;;;;;;5071993;28;20182;-80
2021/06/28 04:58:47;;;;;;;12.40;3.80;;;24.50;99.90;;;;;;5072432;28;20186;-80
2021/06/28 05:01:15;;;;;;;8.52;3.33;;;24.60;99.90;;;;;;5062081;28;20833;-80
2021/06/28 05:03:42;;;;;;;12.93;4.40;;;24.60;99.90;;;;;;5067748;28;20206;-80
2021/06/28 05:06:08;;;;;;;10.25;3.80;;;24.60;99.90;;;;;;5064339;28;20223;-79
2021/06/28 05:08:34;;;;;;;7.63;3.30;;;24.60;99.90;;;;;;5066089;28;20187;-79
2021/06/28 05:11:01;;;;;;;10.27;3.65;;;24.60;99.90;;;;;;5066177;28;20743;-79
2021/06/28 05:13:27;;;;;;;7.97;3.42;;;24.60;99.90;;;;;;5045597;28;20178;-78
2021/06/28 05:15:53;;;;;;;9.82;3.90;;;24.70;99.90;;;;;;5070234;28;20183;-78
2021/06/28 05:18:19;;;;;;;9.13;3.35;;;24.80;99.90;;;;;;5054791;28;20218;-78
2021/06/28 05:20:46;;;;;;;8.23;3.92;;;24.80;99.90;;;;;;5068595;28;20182;-77
2021/06/28 05:23:13;;;;;;;8.65;3.50;;;24.80;99.90;;;;;;5066282;28;20770;-78
2021/06/28 05:25:39;;;;;;;14.45;3.20;;;24.90;99.90;;;;;;5068382;28;20269;-78
2021/06/28 05:28:07;;;;;;;17.30;3.90;;;25.00;99.90;;;;;;5069393;28;20193;-77
2021/06/28 05:30:34;;;;;;;18.25;4.28;;;25.50;99.90;;;;;;5064754;28;20756;-78
2021/06/28 05:33:01;;;;;;;14.30;3.85;;;26.00;99.90;;;;;;5080794;28;20192;-79
2021/06/28 05:35:27;;;;;;;17.63;4.15;;;26.20;99.90;;;;;;5067593;28;20175;-79
2021/06/28 05:37:53;;;;;;;11.98;4.07;;;26.00;99.90;;;;;;5067206;28;20269;-79
2021/06/28 05:40:20;;;;;;;11.38;4.22;;;26.40;99.90;;;;;;5072335;28;20199;-78
2021/06/28 05:42:47;;;;;;;15.13;4.38;;;26.70;99.90;;;;;;5080997;28;20183;-79
2021/06/28 05:45:14;;;;;;;12.30;4.10;;;26.70;99.90;;;;;;5051518;28;20683;-76
2021/06/28 05:47:44;;;;;;;16.88;4.22;;;26.50;99.90;;;;;;5065472;28;20191;-75
2021/06/28 05:50:14;;;;;;;13.00;3.92;;;26.50;99.90;;;;;;5073395;28;20289;-75
2021/06/28 05:52:41;;;;;;;16.25;4.00;;;26.50;99.90;;;;;;5067917;28;20210;-76
2021/06/28 05:55:08;;;;;;;19.65;4.30;;;26.60;99.90;;;;;;5075536;28;20190;-75
2021/06/28 05:57:35;;;;;;;20.77;3.90;;;26.70;99.90;;;;;;5062586;28;20183;-76
2021/06/28 06:00:01;;;;;;;25.02;4.75;;;27.00;99.90;;;;;;5068264;28;20197;-77
2021/06/28 06:02:27;;;;;;;22.92;4.93;;;27.00;99.90;;;;;;5065394;28;20213;-75
2021/06/28 06:04:53;;;;;;;18.42;3.75;;;27.20;99.90;;;;;;5063806;28;20218;-74
2021/06/28 06:07:20;;;;;;;19.63;3.85;;;26.90;99.90;;;;;;5064113;28;20205;-74
2021/06/28 06:09:46;;;;;;;23.60;4.70;;;26.70;99.90;;;;;;5084342;28;20206;-75
2021/06/28 06:12:14;;;;;;;12.55;4.07;;;26.90;99.90;;;;;;5066710;28;20586;-75
2021/06/28 06:14:40;;;;;;;19.13;3.75;;;27.00;99.90;;;;;;5062128;28;20606;-74
2021/06/28 06:17:06;;;;;;;18.13;4.38;;;26.80;99.90;;;;;;5077390;28;20187;-75
2021/06/28 06:19:33;;;;;;;11.23;3.85;;;27.30;99.90;;;;;;5049919;28;20706;-76
2021/06/28 06:21:59;;;;;;;11.20;4.10;;;27.60;99.90;;;;;;5049293;28;20865;-74
2021/06/28 06:24:29;;;;;;;15.07;4.38;;;27.10;99.90;;;;;;5065656;28;20221;-75
2021/06/28 06:26:59;;;;;;;16.73;4.25;;;26.90;99.90;;;;;;5065739;28;20198;-75
2021/06/28 06:29:26;;;;;;;17.10;4.38;;;27.40;99.90;;;;;;5078573;28;20222;-74
2021/06/28 06:31:53;;;;;;;13.70;3.72;;;27.60;99.90;;;;;;5069041;28;20233;-74
2021/06/28 06:34:19;;;;;;;13.82;4.35;;;27.20;99.90;;;;;;5067496;28;20443;-75
2021/06/28 06:36:46;;;;;;;16.85;3.80;;;27.20;99.90;;;;;;5063868;28;20175;-76
2021/06/28 06:39:12;;;;;;;10.40;4.05;;;27.20;99.90;;;;;;5049341;28;20191;-74
2021/06/28 06:41:38;;;;;;;17.42;4.65;;;27.70;99.90;;;;;;5065196;28;20194;-74
2021/06/28 06:44:05;;;;;;;13.77;4.32;;;27.90;99.90;;;;;;5067567;28;20174;-74
2021/06/28 06:46:31;;;;;;;16.35;4.30;;;27.90;99.90;;;;;;5065860;28;20461;-75
2021/06/28 06:48:58;;;;;;;16.15;4.15;;;27.70;99.90;;;;;;5070182;28;20186;-75
2021/06/28 06:51:27;;;;;;;13.25;4.57;;;28.60;99.90;;;;;;5063265;28;20245;-77
2021/06/28 06:53:53;;;;;;;13.00;4.13;;;28.70;99.90;;;;;;5066554;28;20249;-76
2021/06/28 06:56:20;;;;;;;19.48;4.32;;;28.20;99.90;;;;;;5066434;28;20219;-76
2021/06/28 06:58:47;;;;;;;8.23;3.60;;;28.70;99.90;;;;;;5069135;28;20183;-75
2021/06/28 07:01:16;;;;;;;16.67;4.38;;;28.50;99.90;;;;;;5064023;28;20259;-75
2021/06/28 07:03:46;;;;;;;12.60;4.65;;;28.70;99.90;;;;;;5083147;28;20274;-76
2021/06/28 07:06:14;;;;;;;14.10;4.32;;;28.80;99.90;;;;;;5065106;28;20195;-77
2021/06/28 07:08:41;;;;;;;20.25;4.70;;;28.90;99.90;;;;;;5070922;28;20189;-78
2021/06/28 07:11:11;;;;;;;9.43;4.28;;;29.20;99.90;;;;;;5070522;28;20225;-74
2021/06/28 07:13:40;;;;;;;14.48;4.30;;;29.00;99.90;;;;;;5082065;28;20238;-75
2021/06/28 07:16:07;;;;;;;16.90;4.40;;;29.30;99.90;;;;;;5070504;28;20191;-77
2021/06/28 07:18:34;;;;;;;14.02;4.28;;;29.40;99.90;;;;;;5064019;28;20179;-76
2021/06/28 07:21:02;;;;;;;11.70;3.90;;;29.20;99.90;;;;;;5047451;28;20190;-76
2021/06/28 07:23:29;;;;;;;13.90;3.60;;;29.40;99.90;;;;;;5063193;28;20199;-76
2021/06/28 07:25:57;;;;;;;13.93;4.60;;;29.20;99.90;;;;;;5063934;28;20846;-78
2021/06/28 07:28:24;;;;;;;13.38;3.90;;;29.20;99.90;;;;;;5066787;28;20207;-78
2021/06/28 07:30:51;;;;;;;11.52;3.80;;;29.50;99.90;;;;;;5080237;28;20209;-76
2021/06/28 07:33:19;;;;;;;13.50;3.85;;;29.60;99.90;;;;;;5063996;28;20198;-78
2021/06/28 07:35:46;;;;;;;11.05;4.05;;;29.70;99.90;;;;;;5064277;28;20183;-78
2021/06/28 07:38:12;;;;;;;13.55;3.90;;;29.80;99.90;;;;;;5062588;28;20186;-77
2021/06/28 07:40:38;;;;;;;13.52;4.25;;;29.70;99.90;;;;;;5047585;28;20191;-78
2021/06/28 07:43:05;;;;;;;16.13;4.22;;;29.90;99.90;;;;;;5061557;28;20269;-74
2021/06/28 07:45:31;;;;;;;11.60;4.07;;;29.80;99.90;;;;;;5067982;28;20671;-77
2021/06/28 07:47:58;;;;;;;11.07;3.55;;;29.80;99.90;;;;;;5060302;28;20210;-76
2021/06/28 07:50:25;;;;;;;18.33;3.78;;;30.00;99.90;;;;;;5061570;28;20280;-75
2021/06/28 07:52:51;;;;;;;11.15;3.83;;;30.30;99.90;;;;;;5047130;28;20728;-76
2021/06/28 07:55:18;;;;;;;14.98;3.97;;;30.30;99.90;;;;;;5064999;28;20228;-76
2021/06/28 07:57:44;;;;;;;11.23;4.05;;;30.30;99.90;;;;;;5064041;28;20193;-76
2021/06/28 08:00:17;;;;;;;15.13;4.20;;;30.30;99.90;;;;;;5047934;28;20248;-77
2021/06/28 08:02:46;;;;;;;9.32;4.00;;;30.30;99.90;;;;;;5060454;28;20190;-76
2021/06/28 08:05:15;;;;;;;11.32;3.90;;;30.50;99.90;;;;;;5058306;28;20202;-78
2021/06/28 08:07:44;;;;;;;9.85;3.60;;;30.60;99.90;;;;;;5063040;28;20198;-77
2021/06/28 08:10:13;;;;;;;15.13;3.97;;;30.70;99.90;;;;;;5059406;28;20204;-77
2021/06/28 08:12:43;;;;;;;18.73;3.85;;;30.70;99.90;;;;;;5064401;28;20934;-77
2021/06/28 08:15:15;;;;;;;8.60;3.63;;;30.80;99.40;;;;;;5064377;28;20273;-77
2021/06/28 08:17:41;;;;;;;14.45;3.72;;;31.00;98.80;;;;;;5062591;28;20244;-76
2021/06/28 08:20:09;;;;;;;15.02;3.78;;;31.10;98.90;;;;;;5064201;28;20195;-76
2021/06/28 08:22:36;;;;;;;6.13;3.17;;;31.10;98.30;;;;;;5061418;28;20186;-76
2021/06/28 08:25:08;;;;;;;12.93;3.50;;;31.10;98.00;;;;;;5066465;28;20186;-75
2021/06/28 08:27:35;;;;;;;14.27;3.90;;;31.20;98.10;;;;;;5074707;28;20188;-76
2021/06/28 08:30:08;;;;;;;12.30;3.72;;;31.40;97.90;;;;;;5063443;28;20543;-76
2021/06/28 08:32:35;;;;;;;13.70;4.03;;;31.20;99.00;;;;;;5061854;28;20189;-75
2021/06/28 08:35:02;;;;;;;10.68;3.50;;;31.30;99.20;;;;;;5064157;28;20182;-78
2021/06/28 08:37:33;;;;;;;12.60;3.80;;;31.40;99.50;;;;;;5060290;28;20222;-78
2021/06/28 08:39:59;;;;;;;16.77;4.53;;;31.50;99.40;;;;;;5062548;28;20553;-78
2021/06/28 08:42:26;;;;;;;13.82;3.50;;;31.50;99.00;;;;;;5065750;28;20219;-76
2021/06/28 08:44:53;;;;;;;12.70;4.15;;;31.30;98.90;;;;;;5079818;28;20675;-76
2021/06/28 08:47:20;;;;;;;12.52;3.88;;;31.40;98.00;;;;;;5062158;28;20198;-79
2021/06/28 08:49:48;;;;;;;13.35;3.90;;;31.50;97.60;;;;;;5077765;28;20823;-75
2021/06/28 08:52:17;;;;;;;14.13;3.35;;;31.40;97.50;;;;;;5064389;28;20206;-79
2021/06/28 08:54:45;;;;;;;10.50;3.50;;;31.60;96.90;;;;;;5063431;28;20191;-75
2021/06/28 08:57:12;;;;;;;13.60;3.33;;;31.60;97.00;;;;;;5063157;28;22146;-77
2021/06/28 08:59:41;;;;;;;8.57;3.38;;;31.70;95.80;;;;;;5059512;28;20186;-77
2021/06/28 09:02:08;;;;;;;8.68;3.15;;;31.70;96.60;;;;;;5043292;28;20179;-78
2021/06/28 09:04:36;;;;;;;16.77;3.80;;;31.60;95.70;;;;;;5063942;28;20195;-77
2021/06/28 09:07:22;;;;;;;10.50;3.65;;;31.80;95.50;;;;;;5081352;28;20262;-78
2021/06/28 09:09:49;;;;;;;13.68;3.35;;;31.80;95.90;;;;;;5077730;28;20225;-77
2021/06/28 09:12:18;;;;;;;9.18;3.28;;;31.70;96.00;;;;;;5074168;28;20222;-77
2021/06/28 09:15:00;;;;;;;14.20;3.38;;;32.10;96.40;;;;;;5073737;28;20535;-79
2021/06/28 09:17:41;;;;;;;12.88;3.50;;;32.00;96.30;;;;;;5062986;28;20225;-78
2021/06/28 09:20:15;;;;;;;15.95;3.70;;;32.00;96.00;;;;;;5077733;28;20179;-77
2021/06/28 09:22:44;;;;;;;14.30;3.65;;;32.10;96.70;;;;;;5061353;28;20198;-78
2021/06/28 09:25:31;;;;;;;10.80;3.90;;;32.00;96.40;;;;;;5063622;28;20235;-78
2021/06/28 09:27:58;;;;;;;16.65;3.78;;;32.00;96.30;;;;;;5065375;28;20230;-77
2021/06/28 09:30:25;;;;;;;17.38;3.97;;;32.10;96.10;;;;;;5063707;28;20210;-79
2021/06/28 09:32:58;;;;;;;11.85;3.90;;;32.10;97.30;;;;;;5079476;28;20674;-77
2021/06/28 09:35:34;;;;;;;14.10;3.47;;;32.20;96.60;;;;;;5063835;28;20225;-77
2021/06/28 09:38:29;;;;;;;18.33;4.25;;;32.30;96.20;;;;;;5079921;28;20191;-77
2021/06/28 09:40:56;;;;;;;9.10;3.40;;;32.10;96.70;;;;;;5063823;28;20193;-77
2021/06/28 09:43:27;;;;;;;15.30;3.80;;;32.10;96.40;;;;;;5060867;28;20191;-79
2021/06/28 09:45:55;;;;;;;15.55;3.78;;;32.20;95.60;;;;;;5061606;28;20183;-78
2021/06/28 09:48:31;;;;;;;9.55;3.55;;;32.30;95.70;;;;;;5060977;28;20517;-79
2021/06/28 09:51:24;;;;;;;15.23;3.70;;;32.30;94.90;;;;;;5059020;28;20203;-78
2021/06/28 09:53:56;;;;;;;10.95;3.42;;;32.30;95.90;;;;;;5082713;28;20265;-78
2021/06/28 09:56:34;;;;;;;16.65;3.95;;;32.50;95.80;;;;;;5058471;28;20191;-79
2021/06/28 09:59:28;;;;;;;10.52;3.30;;;32.70;94.70;;;;;;5065320;28;20190;-78
2021/06/28 10:02:25;;;;;;;10.93;3.25;;;32.70;94.20;;;;;;5064131;28;20266;-78
2021/06/28 10:05:16;;;;;;;7.43;3.13;;;32.70;94.60;;;;;;5066467;28;22457;-78
2021/06/28 10:07:44;;;;;;;17.60;4.13;;;32.80;94.10;;;;;;5080915;28;20352;-77
2021/06/28 10:10:21;;;;;;;12.38;3.35;;;32.90;94.10;;;;;;5062796;28;20217;-78
2021/06/28 10:12:56;;;;;;;10.93;3.63;;;32.80;93.40;;;;;;5064121;28;20670;-77
2021/06/28 10:15:26;;;;;;;10.95;3.47;;;32.80;93.60;;;;;;5065392;28;20194;-77
2021/06/28 10:17:53;;;;;;;14.40;3.40;;;32.90;93.70;;;;;;5065147;28;20183;-78
2021/06/28 10:20:32;;;;;;;12.65;3.20;;;32.80;93.50;;;;;;5047296;28;20601;-77
2021/06/28 10:23:01;;;;;;;11.60;3.40;;;32.90;93.60;;;;;;5063670;28;20722;-75
2021/06/28 10:25:29;;;;;;;13.75;3.70;;;33.00;93.90;;;;;;5068774;28;20601;-76
2021/06/28 10:27:58;;;;;;;14.65;3.90;;;33.20;94.40;;;;;;5066127;28;20195;-75
2021/06/28 10:30:27;;;;;;;14.98;3.70;;;33.10;94.60;;;;;;5065122;28;20766;-78
2021/06/28 10:33:08;;;;;;;13.05;3.65;;;33.30;94.70;;;;;;5082279;28;20222;-76
2021/06/28 10:35:41;;;;;;;9.52;3.53;;;33.10;95.20;;;;;;5077516;28;20509;-75
2021/06/28 10:38:13;;;;;;;13.18;3.40;;;33.20;95.00;;;;;;5064171;28;20179;-77
2021/06/28 10:40:58;;;;;;;10.95;3.60;;;33.30;95.20;;;;;;5065037;28;20766;-74
2021/06/28 10:43:33;;;;;;;9.70;3.47;;;33.30;94.80;;;;;;5062177;28;20198;-75
2021/06/28 10:46:06;;;;;;;10.90;3.67;;;33.50;95.30;;;;;;5078211;28;20300;-74
2021/06/28 10:48:46;;;;;;;11.40;4.18;;;33.60;95.40;;;;;;5068625;28;20282;-74
2021/06/28 10:51:19;;;;;;;13.07;3.50;;;33.60;95.40;;;;;;5063371;28;20199;-75
2021/06/28 10:53:55;;;;;;;17.35;3.75;;;33.60;95.00;;;;;;5064359;28;20186;-75
2021/06/28 10:56:32;;;;;;;14.52;3.75;;;33.50;94.70;;;;;;5061352;28;20239;-76
2021/06/28 10:59:02;;;;;;;12.50;3.70;;;33.40;95.00;;;;;;5061631;28;20286;-76
2021/06/28 11:01:41;;;;;;;12.13;3.97;;;33.50;95.30;;;;;;5064098;28;20291;-77
2021/06/28 11:04:28;;;;;;;13.80;3.90;;;33.60;95.50;;;;;;5064755;28;20655;-75
2021/06/28 11:07:02;;;;;;;12.32;3.70;;;33.70;94.90;;;;;;5081458;28;20198;-76
2021/06/28 11:09:54;;;;;;;10.18;3.78;;;33.70;94.80;;;;;;5077255;28;20761;-76
2021/06/28 11:12:28;;;;;;;10.77;3.22;;;33.80;94.50;;;;;;5058899;28;20503;-76
2021/06/28 11:15:02;;;;;;;13.05;3.80;;;33.60;94.00;;;;;;5066246;28;20187;-76
2021/06/28 11:17:53;;;;;;;14.20;3.75;;;33.60;94.00;;;;;;5070173;28;20578;-75
2021/06/28 11:20:37;;;;;;;9.55;3.72;;;33.50;93.90;;;;;;5078171;28;20175;-76
2021/06/28 11:23:18;;;;;;;10.38;3.42;;;33.50;94.10;;;;;;5050743;28;20261;-76
2021/06/28 11:25:54;;;;;;;10.43;3.30;;;33.50;93.60;;;;;;5063023;28;20689;-76
2021/06/28 11:28:39;;;;;;;17.77;3.78;;;33.50;94.40;;;;;;5066465;28;20195;-76
2021/06/28 11:31:16;;;;;;;6.63;3.20;;;33.50;93.80;;;;;;5067144;28;20210;-77
2021/06/28 11:33:48;;;;;;;13.52;3.15;;;33.50;93.60;;;;;;5076830;28;20190;-76
2021/06/28 11:36:36;;;;;;;12.38;3.90;;;33.60;93.50;;;;;;5081552;28;20195;-75
2021/06/28 11:39:27;;;;;;;18.70;3.58;;;33.60;93.50;;;;;;5060720;28;20187;-75
2021/06/28 11:42:24;;;;;;;16.60;3.22;;;33.40;93.70;;;;;;5047546;28;20187;-76
2021/06/28 11:44:57;;;;;;;6.97;3.50;;;33.50;93.90;;;;;;5063256;28;20182;-76
2021/06/28 11:47:46;;;;;;;13.00;3.15;;;33.60;93.70;;;;;;5071278;28;20567;-77
2021/06/28 11:50:33;;;;;;;15.20;3.65;;;33.50;93.80;;;;;;5058879;28;20219;-76
2021/06/28 11:53:13;;;;;;;11.20;3.42;;;33.40;93.50;;;;;;5061550;28;20794;-76
2021/06/28 11:55:48;;;;;;;7.70;3.60;;;33.60;93.40;;;;;;5063928;28;20334;-76
2021/06/28 11:58:16;;;;;;;9.68;3.10;;;33.60;92.90;;;;;;5062762;28;20658;-77
2021/06/28 12:00:43;;;;;;;14.00;3.45;;;33.70;92.70;;;;;;5061907;28;20188;-77
2021/06/28 12:03:25;;;;;;;15.20;3.63;;;33.70;92.90;;;;;;5066924;28;20191;-76
2021/06/28 12:05:52;;;;;;;10.65;3.10;;;33.80;92.90;;;;;;5064550;28;20221;-76
2021/06/28 12:08:26;;;;;;;12.13;3.28;;;33.90;92.70;;;;;;5059411;28;20190;-76
2021/06/28 12:10:59;;;;;;;10.68;3.50;;;33.90;93.20;;;;;;5065383;28;20214;-76
2021/06/28 12:13:29;;;;;;;9.50;3.28;;;33.70;93.00;;;;;;5079357;28;20195;-75
2021/06/28 12:15:56;;;;;;;11.05;3.22;;;33.90;92.90;;;;;;5062286;28;20551;-75
2021/06/28 12:18:22;;;;;;;9.18;3.15;;;33.90;92.60;;;;;;5067160;28;20195;-76
2021/06/28 12:20:58;;;;;;;11.00;3.10;;;33.80;92.20;;;;;;5045223;28;20248;-76
2021/06/28 12:23:25;;;;;;;13.73;3.50;;;33.80;92.20;;;;;;5060218;28;20197;-76
2021/06/28 12:25:52;;;;;;;11.23;3.30;;;33.90;92.30;;;;;;5075486;28;21789;-76
2021/06/28 12:28:30;;;;;;;10.10;3.05;;;33.90;92.00;;;;;;5065414;28;20249;-77
2021/06/28 12:30:57;;;;;;;8.95;3.00;;;33.70;92.10;;;;;;5065246;28;20289;-76
2021/06/28 12:33:26;;;;;;;12.27;3.55;;;33.90;91.70;;;;;;5064141;28;20260;-77
2021/06/28 12:35:59;;;;;;;6.25;3.05;;;33.60;91.90;;;;;;5065766;28;20529;-76
2021/06/28 12:38:26;;;;;;;11.85;3.30;;;33.80;91.60;;;;;;5079155;28;20197;-76
2021/06/28 12:40:52;;;;;;;9.15;3.20;;;33.60;92.20;;;;;;5076323;28;20575;-76
2021/06/28 12:43:20;;;;;;;13.25;3.60;;;33.40;92.20;;;;;;5060585;28;20193;-76
2021/06/28 12:45:52;;;;;;;14.33;3.50;;;33.70;92.00;;;;;;5046870;28;20415;-77
2021/06/28 12:48:26;;;;;;;10.63;2.95;;;33.60;92.60;;;;;;5063680;28;20634;-77
2021/06/28 12:50:59;;;;;;;9.75;3.03;;;33.60;92.60;;;;;;5063425;28;20264;-75
2021/06/28 12:53:28;;;;;;;10.20;3.10;;;33.50;92.50;;;;;;5062829;28;20635;-75